sensor_id;sensor_type;location;lat;lon;timestamp;temperature;humidity
44707;DHT22;30433;45.596;8.408;2023-01-08T00:04:40;6.40;99.90
44707;DHT22;30433;45.596;8.408;2023-01-08T00:10:42;6.60;99.90
44707;DHT22;30433;45.596;8.408;2023-01-08T00:16:45;6.50;99.90
44707;DHT22;30433;45.596;8.408;2023-01-08T00:22:47;6.50;99.90
44707;DHT22;30433;45.596;8.408;2023-01-08T00:28:48;6.40;99.90
44707;DHT22;30433;45.596;8.408;2023-01-08T00:34:52;6.50;99.90
44707;DHT22;30433;45.596;8.408;2023-01-08T00:40:54;6.50;99.90
44707;DHT22;30433;45.596;8.408;2023-01-08T00:46:56;6.40;99.90
44707;DHT22;30433;45.596;8.408;2023-01-08T00:52:59;6.40;99.90
44707;DHT22;30433;45.596;8.408;2023-01-08T00:59:01;6.30;99.90
44707;DHT22;30433;45.596;8.408;2023-01-08T01:05:03;6.30;99.90
44707;DHT22;30433;45.596;8.408;2023-01-08T01:11:07;6.00;99.90
44707;DHT22;30433;45.596;8.408;2023-01-08T01:17:09;6.30;99.90
44707;DHT22;30433;45.596;8.408;2023-01-08T01:23:11;6.20;99.90
44707;DHT22;30433;45.596;8.408;2023-01-08T01:29:14;6.40;99.90
44707;DHT22;30433;45.596;8.408;2023-01-08T01:35:16;6.50;99.90
44707;DHT22;30433;45.596;8.408;2023-01-08T01:41:18;6.40;99.90
44707;DHT22;30433;45.596;8.408;2023-01-08T01:47:26;6.10;99.90
44707;DHT22;30433;45.596;8.408;2023-01-08T01:53:29;6.00;99.90
44707;DHT22;30433;45.596;8.408;2023-01-08T01:59:33;6.30;99.90
44707;DHT22;30433;45.596;8.408;2023-01-08T02:05:37;6.30;99.90
44707;DHT22;30433;45.596;8.408;2023-01-08T02:11:44;6.30;99.90
44707;DHT22;30433;45.596;8.408;2023-01-08T02:17:48;6.50;99.90
44707;DHT22;30433;45.596;8.408;2023-01-08T02:23:55;6.40;99.90
44707;DHT22;30433;45.596;8.408;2023-01-08T02:30:01;6.30;99.90
44707;DHT22;30433;45.596;8.408;2023-01-08T02:36:14;6.30;99.90
44707;DHT22;30433;45.596;8.408;2023-01-08T02:42:19;6.40;99.90
44707;DHT22;30433;45.596;8.408;2023-01-08T02:48:27;6.30;99.90
44707;DHT22;30433;45.596;8.408;2023-01-08T02:54:33;6.10;99.90
44707;DHT22;30433;45.596;8.408;2023-01-08T03:00:35;6.10;99.90
44707;DHT22;30433;45.596;8.408;2023-01-08T03:06:39;6.00;99.90
44707;DHT22;30433;45.596;8.408;2023-01-08T03:12:44;6.00;99.90
44707;DHT22;30433;45.596;8.408;2023-01-08T03:18:51;6.10;99.90
44707;DHT22;30433;45.596;8.408;2023-01-08T03:24:56;6.10;99.90
44707;DHT22;30433;45.596;8.408;2023-01-08T03:30:59;6.10;99.90
44707;DHT22;30433;45.596;8.408;2023-01-08T03:37:02;6.30;99.90
44707;DHT22;30433;45.596;8.408;2023-01-08T03:43:06;6.10;99.90
44707;DHT22;30433;45.596;8.408;2023-01-08T03:49:08;6.30;99.90
44707;DHT22;30433;45.596;8.408;2023-01-08T03:55:10;6.20;99.90
44707;DHT22;30433;45.596;8.408;2023-01-08T04:01:13;6.30;99.90
44707;DHT22;30433;45.596;8.408;2023-01-08T04:07:15;6.30;99.90
44707;DHT22;30433;45.596;8.408;2023-01-08T04:13:17;6.30;99.90
44707;DHT22;30433;45.596;8.408;2023-01-08T04:19:20;6.40;99.90
44707;DHT22;30433;45.596;8.408;2023-01-08T04:25:22;6.40;99.90
44707;DHT22;30433;45.596;8.408;2023-01-08T04:31:24;6.20;99.90
44707;DHT22;30433;45.596;8.408;2023-01-08T04:37:27;6.40;99.90
44707;DHT22;30433;45.596;8.408;2023-01-08T04:43:29;6.30;99.90
44707;DHT22;30433;45.596;8.408;2023-01-08T04:49:31;6.10;99.90
44707;DHT22;30433;45.596;8.408;2023-01-08T04:55:34;6.10;99.90
44707;DHT22;30433;45.596;8.408;2023-01-08T05:01:35;6.20;99.90
44707;DHT22;30433;45.596;8.408;2023-01-08T05:07:37;6.20;99.90
44707;DHT22;30433;45.596;8.408;2023-01-08T05:13:40;6.40;99.90
44707;DHT22;30433;45.596;8.408;2023-01-08T05:19:42;6.30;99.90
44707;DHT22;30433;45.596;8.408;2023-01-08T05:25:44;6.40;99.90
44707;DHT22;30433;45.596;8.408;2023-01-08T05:31:47;6.40;99.90
44707;DHT22;30433;45.596;8.408;2023-01-08T05:37:49;6.30;99.90
44707;DHT22;30433;45.596;8.408;2023-01-08T05:43:50;6.40;99.90
44707;DHT22;30433;45.596;8.408;2023-01-08T05:49:53;6.50;99.90
44707;DHT22;30433;45.596;8.408;2023-01-08T05:55:57;6.30;99.90
44707;DHT22;30433;45.596;8.408;2023-01-08T06:01:59;6.30;99.90
44707;DHT22;30433;45.596;8.408;2023-01-08T06:08:02;6.20;99.90
44707;DHT22;30433;45.596;8.408;2023-01-08T06:14:04;6.20;99.90
44707;DHT22;30433;45.596;8.408;2023-01-08T06:20:06;6.30;99.90
44707;DHT22;30433;45.596;8.408;2023-01-08T06:26:09;6.30;99.90
44707;DHT22;30433;45.596;8.408;2023-01-08T06:32:11;6.40;99.90
44707;DHT22;30433;45.596;8.408;2023-01-08T06:38:12;6.30;99.90
44707;DHT22;30433;45.596;8.408;2023-01-08T06:44:16;6.50;99.90
44707;DHT22;30433;45.596;8.408;2023-01-08T06:50:17;6.50;99.90
44707;DHT22;30433;45.596;8.408;2023-01-08T06:56:19;6.60;99.90
44707;DHT22;30433;45.596;8.408;2023-01-08T07:02:22;6.40;99.90
44707;DHT22;30433;45.596;8.408;2023-01-08T07:08:24;6.50;99.90
44707;DHT22;30433;45.596;8.408;2023-01-08T07:14:26;6.50;99.90
44707;DHT22;30433;45.596;8.408;2023-01-08T07:20:29;6.40;99.90
44707;DHT22;30433;45.596;8.408;2023-01-08T07:26:31;6.40;99.90
44707;DHT22;30433;45.596;8.408;2023-01-08T07:32:32;6.50;99.90
44707;DHT22;30433;45.596;8.408;2023-01-08T07:38:36;6.40;99.90
44707;DHT22;30433;45.596;8.408;2023-01-08T07:44:37;6.40;99.90
44707;DHT22;30433;45.596;8.408;2023-01-08T07:50:39;6.40;99.90
44707;DHT22;30433;45.596;8.408;2023-01-08T07:56:42;6.60;99.90
44707;DHT22;30433;45.596;8.408;2023-01-08T08:02:44;6.60;99.90
44707;DHT22;30433;45.596;8.408;2023-01-08T08:08:46;6.60;99.90
44707;DHT22;30433;45.596;8.408;2023-01-08T08:14:49;6.60;99.90
44707;DHT22;30433;45.596;8.408;2023-01-08T08:20:51;6.50;99.90
44707;DHT22;30433;45.596;8.408;2023-01-08T08:26:52;6.60;99.90
44707;DHT22;30433;45.596;8.408;2023-01-08T08:32:57;6.50;99.90
44707;DHT22;30433;45.596;8.408;2023-01-08T08:39:00;6.50;99.90
44707;DHT22;30433;45.596;8.408;2023-01-08T08:45:03;6.60;99.90
44707;DHT22;30433;45.596;8.408;2023-01-08T08:51:06;6.70;99.90
44707;DHT22;30433;45.596;8.408;2023-01-08T08:57:08;6.60;99.90
44707;DHT22;30433;45.596;8.408;2023-01-08T09:03:10;6.80;99.90
44707;DHT22;30433;45.596;8.408;2023-01-08T09:09:14;6.70;99.90
44707;DHT22;30433;45.596;8.408;2023-01-08T09:15:16;6.80;99.90
44707;DHT22;30433;45.596;8.408;2023-01-08T09:21:18;6.80;99.90
44707;DHT22;30433;45.596;8.408;2023-01-08T09:27:21;6.80;99.90
44707;DHT22;30433;45.596;8.408;2023-01-08T09:33:23;6.80;99.90
44707;DHT22;30433;45.596;8.408;2023-01-08T09:39:24;6.90;99.90
44707;DHT22;30433;45.596;8.408;2023-01-08T09:45:29;6.80;99.90
44707;DHT22;30433;45.596;8.408;2023-01-08T09:51:32;6.80;99.90
44707;DHT22;30433;45.596;8.408;2023-01-08T09:57:35;6.70;99.90
44707;DHT22;30433;45.596;8.408;2023-01-08T10:03:39;6.70;99.90
44707;DHT22;30433;45.596;8.408;2023-01-08T10:09:42;6.70;99.90
44707;DHT22;30433;45.596;8.408;2023-01-08T10:15:43;6.80;99.90
44707;DHT22;30433;45.596;8.408;2023-01-08T10:21:46;6.80;99.90
44707;DHT22;30433;45.596;8.408;2023-01-08T10:27:49;6.90;99.90
44707;DHT22;30433;45.596;8.408;2023-01-08T10:33:52;6.90;99.90
44707;DHT22;30433;45.596;8.408;2023-01-08T10:39:57;6.90;99.90
44707;DHT22;30433;45.596;8.408;2023-01-08T10:46:01;6.90;99.90
44707;DHT22;30433;45.596;8.408;2023-01-08T10:52:03;6.90;99.90
44707;DHT22;30433;45.596;8.408;2023-01-08T10:58:13;6.90;99.90
44707;DHT22;30433;45.596;8.408;2023-01-08T11:04:15;6.90;99.90
44707;DHT22;30433;45.596;8.408;2023-01-08T11:10:22;7.10;99.90
44707;DHT22;30433;45.596;8.408;2023-01-08T11:16:32;7.00;99.90
44707;DHT22;30433;45.596;8.408;2023-01-08T11:22:34;7.10;99.90
44707;DHT22;30433;45.596;8.408;2023-01-08T11:28:48;7.10;99.90
44707;DHT22;30433;45.596;8.408;2023-01-08T11:34:55;7.10;99.90
44707;DHT22;30433;45.596;8.408;2023-01-08T11:40:58;7.10;99.90
44707;DHT22;30433;45.596;8.408;2023-01-08T11:47:05;7.20;99.90
44707;DHT22;30433;45.596;8.408;2023-01-08T11:53:14;7.20;99.90
44707;DHT22;30433;45.596;8.408;2023-01-08T11:59:21;7.30;99.90
44707;DHT22;30433;45.596;8.408;2023-01-08T12:05:29;7.40;99.90
44707;DHT22;30433;45.596;8.408;2023-01-08T12:11:35;7.40;99.90
44707;DHT22;30433;45.596;8.408;2023-01-08T12:17:46;7.20;99.90
44707;DHT22;30433;45.596;8.408;2023-01-08T12:24:13;7.50;99.90
44707;DHT22;30433;45.596;8.408;2023-01-08T12:30:20;7.60;99.90
44707;DHT22;30433;45.596;8.408;2023-01-08T12:36:25;7.40;99.90
44707;DHT22;30433;45.596;8.408;2023-01-08T12:42:29;7.40;99.90
44707;DHT22;30433;45.596;8.408;2023-01-08T12:48:34;7.50;99.90
44707;DHT22;30433;45.596;8.408;2023-01-08T12:54:38;7.50;99.90
44707;DHT22;30433;45.596;8.408;2023-01-08T13:00:49;7.50;99.90
44707;DHT22;30433;45.596;8.408;2023-01-08T13:06:56;7.40;99.90
44707;DHT22;30433;45.596;8.408;2023-01-08T13:13:00;7.40;99.90
44707;DHT22;30433;45.596;8.408;2023-01-08T13:19:02;7.40;99.90
44707;DHT22;30433;45.596;8.408;2023-01-08T13:31:26;7.30;99.90
44707;DHT22;30433;45.596;8.408;2023-01-08T13:37:28;7.30;99.90
44707;DHT22;30433;45.596;8.408;2023-01-08T13:43:30;7.30;99.90
44707;DHT22;30433;45.596;8.408;2023-01-08T13:49:41;7.20;99.90
44707;DHT22;30433;45.596;8.408;2023-01-08T13:55:45;7.80;99.90
44707;DHT22;30433;45.596;8.408;2023-01-08T14:01:53;7.60;99.90
44707;DHT22;30433;45.596;8.408;2023-01-08T14:07:56;7.20;99.90
44707;DHT22;30433;45.596;8.408;2023-01-08T14:13:59;7.10;99.90
44707;DHT22;30433;45.596;8.408;2023-01-08T14:20:01;7.10;99.90
44707;DHT22;30433;45.596;8.408;2023-01-08T14:26:05;7.10;99.90
44707;DHT22;30433;45.596;8.408;2023-01-08T14:32:10;7.10;99.90
44707;DHT22;30433;45.596;8.408;2023-01-08T14:38:14;7.10;99.90
44707;DHT22;30433;45.596;8.408;2023-01-08T14:44:17;7.20;99.90
44707;DHT22;30433;45.596;8.408;2023-01-08T14:50:20;7.20;99.90
44707;DHT22;30433;45.596;8.408;2023-01-08T14:56:24;7.10;99.90
44707;DHT22;30433;45.596;8.408;2023-01-08T15:02:30;7.60;99.90
44707;DHT22;30433;45.596;8.408;2023-01-08T15:08:33;7.10;99.90
44707;DHT22;30433;45.596;8.408;2023-01-08T15:14:35;7.10;99.90
44707;DHT22;30433;45.596;8.408;2023-01-08T15:20:38;7.00;99.90
44707;DHT22;30433;45.596;8.408;2023-01-08T15:26:41;7.00;99.90
44707;DHT22;30433;45.596;8.408;2023-01-08T15:32:43;6.90;99.90
44707;DHT22;30433;45.596;8.408;2023-01-08T15:38:46;6.90;99.90
44707;DHT22;30433;45.596;8.408;2023-01-08T15:44:48;6.90;99.90
44707;DHT22;30433;45.596;8.408;2023-01-08T15:57:29;6.90;99.90
44707;DHT22;30433;45.596;8.408;2023-01-08T16:03:31;6.80;99.90
44707;DHT22;30433;45.596;8.408;2023-01-08T16:09:34;6.80;99.90
44707;DHT22;30433;45.596;8.408;2023-01-08T16:15:38;6.90;99.90
44707;DHT22;30433;45.596;8.408;2023-01-08T16:21:40;6.90;99.90
44707;DHT22;30433;45.596;8.408;2023-01-08T16:27:46;6.80;99.90
44707;DHT22;30433;45.596;8.408;2023-01-08T16:33:50;6.80;99.90
44707;DHT22;30433;45.596;8.408;2023-01-08T16:39:52;6.70;99.90
44707;DHT22;30433;45.596;8.408;2023-01-08T16:45:54;6.70;99.90
44707;DHT22;30433;45.596;8.408;2023-01-08T16:51:57;6.70;99.90
44707;DHT22;30433;45.596;8.408;2023-01-08T16:57:59;6.70;99.90
44707;DHT22;30433;45.596;8.408;2023-01-08T17:04:01;6.60;99.90
44707;DHT22;30433;45.596;8.408;2023-01-08T17:10:05;6.70;99.90
44707;DHT22;30433;45.596;8.408;2023-01-08T17:16:08;6.70;99.90
44707;DHT22;30433;45.596;8.408;2023-01-08T17:22:10;6.70;99.90
44707;DHT22;30433;45.596;8.408;2023-01-08T17:28:13;6.80;99.90
44707;DHT22;30433;45.596;8.408;2023-01-08T17:34:15;6.70;99.90
44707;DHT22;30433;45.596;8.408;2023-01-08T17:40:17;7.00;99.90
44707;DHT22;30433;45.596;8.408;2023-01-08T17:46:20;6.80;99.90
44707;DHT22;30433;45.596;8.408;2023-01-08T17:52:22;6.70;99.90
44707;DHT22;30433;45.596;8.408;2023-01-08T17:58:25;6.90;99.90
44707;DHT22;30433;45.596;8.408;2023-01-08T18:04:28;6.80;99.90
44707;DHT22;30433;45.596;8.408;2023-01-08T18:10:31;6.90;99.90
44707;DHT22;30433;45.596;8.408;2023-01-08T18:16:32;6.90;99.90
44707;DHT22;30433;45.596;8.408;2023-01-08T18:22:36;6.90;99.90
44707;DHT22;30433;45.596;8.408;2023-01-08T18:28:37;6.90;99.90
44707;DHT22;30433;45.596;8.408;2023-01-08T18:34:39;6.80;99.90
44707;DHT22;30433;45.596;8.408;2023-01-08T18:40:42;6.70;99.90
44707;DHT22;30433;45.596;8.408;2023-01-08T18:46:44;6.80;99.90
44707;DHT22;30433;45.596;8.408;2023-01-08T18:52:46;6.90;99.90
44707;DHT22;30433;45.596;8.408;2023-01-08T18:58:49;6.90;99.90
44707;DHT22;30433;45.596;8.408;2023-01-08T19:04:51;6.90;99.90
44707;DHT22;30433;45.596;8.408;2023-01-08T19:10:53;6.80;99.90
44707;DHT22;30433;45.596;8.408;2023-01-08T19:16:56;7.00;99.90
44707;DHT22;30433;45.596;8.408;2023-01-08T19:22:58;6.90;99.90
44707;DHT22;30433;45.596;8.408;2023-01-08T19:29:00;7.00;99.90
44707;DHT22;30433;45.596;8.408;2023-01-08T19:35:04;7.00;99.90
44707;DHT22;30433;45.596;8.408;2023-01-08T19:41:06;6.80;99.90
44707;DHT22;30433;45.596;8.408;2023-01-08T19:47:29;6.80;99.90
44707;DHT22;30433;45.596;8.408;2023-01-08T19:53:33;6.70;99.90
44707;DHT22;30433;45.596;8.408;2023-01-08T19:59:35;6.80;99.90
44707;DHT22;30433;45.596;8.408;2023-01-08T20:05:39;6.60;99.90
44707;DHT22;30433;45.596;8.408;2023-01-08T20:11:42;6.60;99.90
44707;DHT22;30433;45.596;8.408;2023-01-08T20:17:44;6.60;99.90
44707;DHT22;30433;45.596;8.408;2023-01-08T20:23:46;6.50;99.90
44707;DHT22;30433;45.596;8.408;2023-01-08T20:29:50;6.50;99.90
44707;DHT22;30433;45.596;8.408;2023-01-08T20:35:52;6.70;99.90
44707;DHT22;30433;45.596;8.408;2023-01-08T20:41:54;6.70;99.90
44707;DHT22;30433;45.596;8.408;2023-01-08T20:47:57;6.70;99.90
44707;DHT22;30433;45.596;8.408;2023-01-08T20:54:00;6.70;99.90
44707;DHT22;30433;45.596;8.408;2023-01-08T21:00:02;6.60;99.90
44707;DHT22;30433;45.596;8.408;2023-01-08T21:06:06;6.70;99.90
44707;DHT22;30433;45.596;8.408;2023-01-08T21:12:08;6.50;99.90
44707;DHT22;30433;45.596;8.408;2023-01-08T21:18:09;6.60;99.90
44707;DHT22;30433;45.596;8.408;2023-01-08T21:24:13;6.60;99.90
44707;DHT22;30433;45.596;8.408;2023-01-08T21:30:15;6.60;99.90
44707;DHT22;30433;45.596;8.408;2023-01-08T21:36:18;6.50;99.90
44707;DHT22;30433;45.596;8.408;2023-01-08T21:42:22;6.50;99.90
44707;DHT22;30433;45.596;8.408;2023-01-08T21:48:41;6.30;99.90
44707;DHT22;30433;45.596;8.408;2023-01-08T21:54:43;6.30;99.90
44707;DHT22;30433;45.596;8.408;2023-01-08T22:00:46;6.30;99.90
44707;DHT22;30433;45.596;8.408;2023-01-08T22:06:48;6.30;99.90
44707;DHT22;30433;45.596;8.408;2023-01-08T22:12:50;6.30;99.90
44707;DHT22;30433;45.596;8.408;2023-01-08T22:18:53;6.30;99.90
44707;DHT22;30433;45.596;8.408;2023-01-08T22:24:56;6.30;99.90
44707;DHT22;30433;45.596;8.408;2023-01-08T22:30:58;6.40;99.90
44707;DHT22;30433;45.596;8.408;2023-01-08T22:37:01;6.40;99.90
44707;DHT22;30433;45.596;8.408;2023-01-08T22:43:03;6.30;99.90
44707;DHT22;30433;45.596;8.408;2023-01-08T22:49:05;6.40;99.90
44707;DHT22;30433;45.596;8.408;2023-01-08T22:55:08;6.30;99.90
44707;DHT22;30433;45.596;8.408;2023-01-08T23:01:11;6.40;99.90
44707;DHT22;30433;45.596;8.408;2023-01-08T23:07:13;6.50;99.90
44707;DHT22;30433;45.596;8.408;2023-01-08T23:13:16;6.70;99.90
44707;DHT22;30433;45.596;8.408;2023-01-08T23:19:18;6.60;99.90
44707;DHT22;30433;45.596;8.408;2023-01-08T23:25:19;6.40;99.90
44707;DHT22;30433;45.596;8.408;2023-01-08T23:31:23;6.40;99.90
44707;DHT22;30433;45.596;8.408;2023-01-08T23:37:25;6.50;99.90
44707;DHT22;30433;45.596;8.408;2023-01-08T23:43:27;6.60;99.90
44707;DHT22;30433;45.596;8.408;2023-01-08T23:49:30;6.60;99.90
44707;DHT22;30433;45.596;8.408;2023-01-08T23:55:32;6.40;99.90
